sensor_id;sensor_type;location;lat;lon;timestamp;P1;durP1;ratioP1;P2;durP2;ratioP2
773;SDS011;370;48.810;9.150;2024-02-15T00:00:58;0.80;;;0.80;;
773;SDS011;370;48.810;9.150;2024-02-15T00:03:25;0.85;;;0.75;;
773;SDS011;370;48.810;9.150;2024-02-15T00:05:52;1.13;;;0.80;;
773;SDS011;370;48.810;9.150;2024-02-15T00:08:19;1.45;;;0.60;;
773;SDS011;370;48.810;9.150;2024-02-15T00:10:47;0.80;;;0.70;;
773;SDS011;370;48.810;9.150;2024-02-15T00:13:14;0.88;;;0.70;;
773;SDS011;370;48.810;9.150;2024-02-15T00:15:41;0.80;;;0.70;;
773;SDS011;370;48.810;9.150;2024-02-15T00:18:08;1.38;;;0.70;;
773;SDS011;370;48.810;9.150;2024-02-15T00:20:35;0.70;;;0.65;;
773;SDS011;370;48.810;9.150;2024-02-15T00:23:02;0.77;;;0.70;;
773;SDS011;370;48.810;9.150;2024-02-15T00:25:29;3.20;;;0.90;;
773;SDS011;370;48.810;9.150;2024-02-15T00:27:58;1.45;;;0.80;;
773;SDS011;370;48.810;9.150;2024-02-15T00:30:26;0.55;;;0.52;;
773;SDS011;370;48.810;9.150;2024-02-15T00:32:53;1.02;;;0.55;;
773;SDS011;370;48.810;9.150;2024-02-15T00:35:20;3.30;;;1.05;;
773;SDS011;370;48.810;9.150;2024-02-15T00:37:46;0.70;;;0.60;;
773;SDS011;370;48.810;9.150;2024-02-15T00:40:15;1.13;;;0.60;;
773;SDS011;370;48.810;9.150;2024-02-15T00:42:41;0.60;;;0.50;;
773;SDS011;370;48.810;9.150;2024-02-15T00:45:09;2.00;;;0.95;;
773;SDS011;370;48.810;9.150;2024-02-15T00:47:36;1.60;;;0.80;;
773;SDS011;370;48.810;9.150;2024-02-15T00:50:07;1.67;;;0.85;;
773;SDS011;370;48.810;9.150;2024-02-15T00:52:34;1.67;;;0.80;;
773;SDS011;370;48.810;9.150;2024-02-15T00:55:01;0.77;;;0.65;;
773;SDS011;370;48.810;9.150;2024-02-15T00:57:28;0.70;;;0.60;;
773;SDS011;370;48.810;9.150;2024-02-15T00:59:55;1.88;;;0.70;;
773;SDS011;370;48.810;9.150;2024-02-15T01:02:23;1.30;;;0.73;;
773;SDS011;370;48.810;9.150;2024-02-15T01:04:50;0.95;;;0.70;;
773;SDS011;370;48.810;9.150;2024-02-15T01:07:18;0.73;;;0.63;;
773;SDS011;370;48.810;9.150;2024-02-15T01:09:45;3.75;;;1.40;;
773;SDS011;370;48.810;9.150;2024-02-15T01:12:11;0.95;;;0.85;;
773;SDS011;370;48.810;9.150;2024-02-15T01:14:38;1.02;;;0.85;;
773;SDS011;370;48.810;9.150;2024-02-15T01:17:05;5.68;;;0.90;;
773;SDS011;370;48.810;9.150;2024-02-15T01:19:34;1.52;;;0.80;;
773;SDS011;370;48.810;9.150;2024-02-15T01:22:00;1.92;;;1.48;;
773;SDS011;370;48.810;9.150;2024-02-15T01:24:27;0.93;;;0.75;;
773;SDS011;370;48.810;9.150;2024-02-15T01:26:55;1.15;;;0.70;;
773;SDS011;370;48.810;9.150;2024-02-15T01:29:22;1.95;;;0.80;;
773;SDS011;370;48.810;9.150;2024-02-15T01:31:50;0.90;;;0.70;;
773;SDS011;370;48.810;9.150;2024-02-15T01:34:17;4.00;;;1.05;;
773;SDS011;370;48.810;9.150;2024-02-15T01:36:46;1.70;;;0.93;;
773;SDS011;370;48.810;9.150;2024-02-15T01:39:14;1.45;;;0.85;;
773;SDS011;370;48.810;9.150;2024-02-15T01:41:40;1.08;;;0.77;;
773;SDS011;370;48.810;9.150;2024-02-15T01:44:13;0.85;;;0.80;;
773;SDS011;370;48.810;9.150;2024-02-15T01:46:39;3.70;;;1.23;;
773;SDS011;370;48.810;9.150;2024-02-15T01:49:06;2.00;;;0.80;;
773;SDS011;370;48.810;9.150;2024-02-15T01:51:33;5.57;;;0.82;;
773;SDS011;370;48.810;9.150;2024-02-15T01:54:03;2.05;;;1.17;;
773;SDS011;370;48.810;9.150;2024-02-15T01:56:30;0.93;;;0.60;;
773;SDS011;370;48.810;9.150;2024-02-15T01:58:58;0.95;;;0.90;;
773;SDS011;370;48.810;9.150;2024-02-15T02:01:26;0.60;;;0.50;;
773;SDS011;370;48.810;9.150;2024-02-15T02:03:54;2.75;;;0.70;;
773;SDS011;370;48.810;9.150;2024-02-15T02:06:22;1.98;;;0.65;;
773;SDS011;370;48.810;9.150;2024-02-15T02:08:49;1.63;;;0.60;;
773;SDS011;370;48.810;9.150;2024-02-15T02:11:17;0.82;;;0.77;;
773;SDS011;370;48.810;9.150;2024-02-15T02:13:44;0.95;;;0.75;;
773;SDS011;370;48.810;9.150;2024-02-15T02:16:26;0.60;;;0.57;;
773;SDS011;370;48.810;9.150;2024-02-15T02:18:54;2.38;;;1.08;;
773;SDS011;370;48.810;9.150;2024-02-15T02:21:21;0.60;;;0.60;;
773;SDS011;370;48.810;9.150;2024-02-15T02:23:50;0.77;;;0.63;;
773;SDS011;370;48.810;9.150;2024-02-15T02:26:20;0.80;;;0.80;;
773;SDS011;370;48.810;9.150;2024-02-15T02:28:48;3.50;;;0.90;;
773;SDS011;370;48.810;9.150;2024-02-15T02:31:15;1.35;;;0.90;;
773;SDS011;370;48.810;9.150;2024-02-15T02:33:43;1.55;;;0.65;;
773;SDS011;370;48.810;9.150;2024-02-15T02:36:14;0.70;;;0.60;;
773;SDS011;370;48.810;9.150;2024-02-15T02:38:41;3.38;;;0.70;;
773;SDS011;370;48.810;9.150;2024-02-15T02:41:10;1.55;;;0.90;;
773;SDS011;370;48.810;9.150;2024-02-15T02:43:38;1.92;;;0.90;;
773;SDS011;370;48.810;9.150;2024-02-15T02:46:05;6.68;;;0.90;;
773;SDS011;370;48.810;9.150;2024-02-15T02:48:32;0.82;;;0.80;;
773;SDS011;370;48.810;9.150;2024-02-15T02:54:21;0.80;;;0.60;;
773;SDS011;370;48.810;9.150;2024-02-15T02:56:48;4.35;;;0.63;;
773;SDS011;370;48.810;9.150;2024-02-15T02:59:16;8.93;;;1.10;;
773;SDS011;370;48.810;9.150;2024-02-15T03:01:43;2.65;;;1.13;;
773;SDS011;370;48.810;9.150;2024-02-15T03:04:09;1.95;;;1.00;;
773;SDS011;370;48.810;9.150;2024-02-15T03:06:37;0.70;;;0.60;;
773;SDS011;370;48.810;9.150;2024-02-15T03:09:07;1.00;;;0.90;;
773;SDS011;370;48.810;9.150;2024-02-15T03:11:35;1.63;;;0.50;;
773;SDS011;370;48.810;9.150;2024-02-15T03:14:01;0.70;;;0.70;;
773;SDS011;370;48.810;9.150;2024-02-15T03:16:30;8.02;;;0.95;;
773;SDS011;370;48.810;9.150;2024-02-15T03:18:57;0.82;;;0.60;;
773;SDS011;370;48.810;9.150;2024-02-15T03:21:25;1.20;;;0.88;;
773;SDS011;370;48.810;9.150;2024-02-15T03:23:53;0.73;;;0.70;;
773;SDS011;370;48.810;9.150;2024-02-15T03:26:24;2.38;;;1.00;;
773;SDS011;370;48.810;9.150;2024-02-15T03:28:55;0.63;;;0.57;;
773;SDS011;370;48.810;9.150;2024-02-15T03:31:22;2.35;;;0.70;;
773;SDS011;370;48.810;9.150;2024-02-15T03:33:50;0.77;;;0.68;;
773;SDS011;370;48.810;9.150;2024-02-15T03:36:18;0.95;;;0.95;;
773;SDS011;370;48.810;9.150;2024-02-15T03:38:46;2.65;;;0.73;;
773;SDS011;370;48.810;9.150;2024-02-15T03:41:13;0.80;;;0.70;;
773;SDS011;370;48.810;9.150;2024-02-15T03:43:40;0.77;;;0.70;;
773;SDS011;370;48.810;9.150;2024-02-15T03:46:08;1.63;;;1.00;;
773;SDS011;370;48.810;9.150;2024-02-15T03:48:37;0.98;;;0.85;;
773;SDS011;370;48.810;9.150;2024-02-15T03:51:05;0.70;;;0.65;;
773;SDS011;370;48.810;9.150;2024-02-15T03:53:32;6.53;;;0.90;;
773;SDS011;370;48.810;9.150;2024-02-15T03:56:02;1.08;;;0.98;;
773;SDS011;370;48.810;9.150;2024-02-15T03:58:29;0.73;;;0.60;;
773;SDS011;370;48.810;9.150;2024-02-15T04:00:57;0.82;;;0.68;;
773;SDS011;370;48.810;9.150;2024-02-15T04:03:24;3.10;;;1.55;;
773;SDS011;370;48.810;9.150;2024-02-15T04:05:51;1.40;;;1.35;;
773;SDS011;370;48.810;9.150;2024-02-15T04:08:21;3.05;;;0.90;;
773;SDS011;370;48.810;9.150;2024-02-15T04:10:48;1.85;;;1.10;;
773;SDS011;370;48.810;9.150;2024-02-15T04:13:16;4.50;;;1.00;;
773;SDS011;370;48.810;9.150;2024-02-15T04:15:42;0.88;;;0.80;;
773;SDS011;370;48.810;9.150;2024-02-15T04:18:12;1.58;;;0.93;;
773;SDS011;370;48.810;9.150;2024-02-15T04:20:39;0.80;;;0.70;;
773;SDS011;370;48.810;9.150;2024-02-15T04:23:09;1.50;;;0.90;;
773;SDS011;370;48.810;9.150;2024-02-15T04:25:38;1.60;;;1.00;;
773;SDS011;370;48.810;9.150;2024-02-15T04:28:06;16.77;;;1.55;;
773;SDS011;370;48.810;9.150;2024-02-15T04:30:34;11.63;;;1.50;;
773;SDS011;370;48.810;9.150;2024-02-15T04:33:03;1.42;;;0.80;;
773;SDS011;370;48.810;9.150;2024-02-15T04:35:30;1.42;;;0.77;;
773;SDS011;370;48.810;9.150;2024-02-15T04:37:57;3.72;;;0.73;;
773;SDS011;370;48.810;9.150;2024-02-15T04:40:24;1.92;;;0.88;;
773;SDS011;370;48.810;9.150;2024-02-15T04:42:52;0.82;;;0.80;;
773;SDS011;370;48.810;9.150;2024-02-15T04:45:18;7.22;;;1.48;;
773;SDS011;370;48.810;9.150;2024-02-15T04:47:47;1.00;;;0.98;;
773;SDS011;370;48.810;9.150;2024-02-15T04:50:16;1.35;;;1.20;;
773;SDS011;370;48.810;9.150;2024-02-15T04:52:44;1.02;;;0.88;;
773;SDS011;370;48.810;9.150;2024-02-15T04:55:14;0.93;;;0.65;;
773;SDS011;370;48.810;9.150;2024-02-15T04:57:42;1.98;;;1.02;;
773;SDS011;370;48.810;9.150;2024-02-15T05:00:11;0.80;;;0.60;;
773;SDS011;370;48.810;9.150;2024-02-15T05:02:40;3.50;;;1.00;;
773;SDS011;370;48.810;9.150;2024-02-15T05:05:09;1.35;;;1.02;;
773;SDS011;370;48.810;9.150;2024-02-15T05:07:37;1.40;;;1.15;;
773;SDS011;370;48.810;9.150;2024-02-15T05:10:05;0.70;;;0.60;;
773;SDS011;370;48.810;9.150;2024-02-15T05:12:34;1.23;;;0.90;;
773;SDS011;370;48.810;9.150;2024-02-15T05:15:01;3.58;;;1.10;;
773;SDS011;370;48.810;9.150;2024-02-15T05:17:36;2.45;;;0.70;;
773;SDS011;370;48.810;9.150;2024-02-15T05:20:06;0.80;;;0.70;;
773;SDS011;370;48.810;9.150;2024-02-15T05:22:36;1.30;;;0.60;;
773;SDS011;370;48.810;9.150;2024-02-15T05:25:04;0.65;;;0.57;;
773;SDS011;370;48.810;9.150;2024-02-15T05:27:33;6.63;;;0.90;;
773;SDS011;370;48.810;9.150;2024-02-15T05:30:01;0.88;;;0.68;;
773;SDS011;370;48.810;9.150;2024-02-15T05:32:31;1.92;;;0.70;;
773;SDS011;370;48.810;9.150;2024-02-15T05:35:00;1.25;;;0.63;;
773;SDS011;370;48.810;9.150;2024-02-15T05:37:27;1.83;;;1.33;;
773;SDS011;370;48.810;9.150;2024-02-15T05:39:53;0.70;;;0.63;;
773;SDS011;370;48.810;9.150;2024-02-15T05:42:20;3.92;;;1.40;;
773;SDS011;370;48.810;9.150;2024-02-15T05:44:47;1.00;;;0.95;;
773;SDS011;370;48.810;9.150;2024-02-15T05:47:15;0.75;;;0.68;;
773;SDS011;370;48.810;9.150;2024-02-15T05:49:42;1.50;;;0.70;;
773;SDS011;370;48.810;9.150;2024-02-15T05:52:11;1.85;;;0.73;;
773;SDS011;370;48.810;9.150;2024-02-15T05:54:38;1.17;;;1.00;;
773;SDS011;370;48.810;9.150;2024-02-15T05:57:06;0.70;;;0.60;;
773;SDS011;370;48.810;9.150;2024-02-15T05:59:33;2.42;;;1.00;;
773;SDS011;370;48.810;9.150;2024-02-15T06:02:00;0.68;;;0.60;;
773;SDS011;370;48.810;9.150;2024-02-15T06:04:28;0.73;;;0.70;;
773;SDS011;370;48.810;9.150;2024-02-15T06:06:54;1.50;;;1.15;;
773;SDS011;370;48.810;9.150;2024-02-15T06:09:27;1.88;;;0.90;;
773;SDS011;370;48.810;9.150;2024-02-15T06:11:55;0.93;;;0.70;;
773;SDS011;370;48.810;9.150;2024-02-15T06:14:22;1.85;;;0.82;;
773;SDS011;370;48.810;9.150;2024-02-15T06:16:49;1.35;;;0.80;;
773;SDS011;370;48.810;9.150;2024-02-15T06:19:17;0.60;;;0.50;;
773;SDS011;370;48.810;9.150;2024-02-15T06:21:44;0.90;;;0.73;;
773;SDS011;370;48.810;9.150;2024-02-15T06:24:11;0.80;;;0.50;;
773;SDS011;370;48.810;9.150;2024-02-15T06:26:40;1.75;;;0.77;;
773;SDS011;370;48.810;9.150;2024-02-15T06:29:07;3.05;;;0.95;;
773;SDS011;370;48.810;9.150;2024-02-15T06:31:52;7.10;;;0.95;;
773;SDS011;370;48.810;9.150;2024-02-15T06:34:32;1.08;;;0.60;;
773;SDS011;370;48.810;9.150;2024-02-15T06:40:19;9.00;;;1.15;;
773;SDS011;370;48.810;9.150;2024-02-15T06:42:47;1.40;;;0.68;;
773;SDS011;370;48.810;9.150;2024-02-15T06:45:14;0.70;;;0.60;;
773;SDS011;370;48.810;9.150;2024-02-15T06:47:41;4.90;;;0.90;;
773;SDS011;370;48.810;9.150;2024-02-15T06:53:30;0.70;;;0.65;;
773;SDS011;370;48.810;9.150;2024-02-15T06:55:57;5.55;;;1.00;;
773;SDS011;370;48.810;9.150;2024-02-15T06:58:25;1.67;;;0.73;;
773;SDS011;370;48.810;9.150;2024-02-15T07:00:52;1.27;;;0.80;;
773;SDS011;370;48.810;9.150;2024-02-15T07:03:19;1.65;;;1.20;;
773;SDS011;370;48.810;9.150;2024-02-15T07:05:47;3.70;;;0.93;;
773;SDS011;370;48.810;9.150;2024-02-15T07:08:14;1.63;;;1.00;;
773;SDS011;370;48.810;9.150;2024-02-15T07:10:41;0.70;;;0.65;;
773;SDS011;370;48.810;9.150;2024-02-15T07:13:08;1.23;;;0.80;;
773;SDS011;370;48.810;9.150;2024-02-15T07:15:36;3.22;;;1.33;;
773;SDS011;370;48.810;9.150;2024-02-15T07:18:04;0.75;;;0.68;;
773;SDS011;370;48.810;9.150;2024-02-15T07:20:32;2.35;;;0.77;;
773;SDS011;370;48.810;9.150;2024-02-15T07:22:59;2.08;;;1.08;;
773;SDS011;370;48.810;9.150;2024-02-15T07:25:26;2.15;;;0.88;;
773;SDS011;370;48.810;9.150;2024-02-15T07:27:52;0.88;;;0.77;;
773;SDS011;370;48.810;9.150;2024-02-15T07:30:19;0.68;;;0.57;;
773;SDS011;370;48.810;9.150;2024-02-15T07:32:48;5.60;;;1.00;;
773;SDS011;370;48.810;9.150;2024-02-15T07:35:15;1.13;;;0.80;;
773;SDS011;370;48.810;9.150;2024-02-15T07:37:50;1.80;;;1.10;;
773;SDS011;370;48.810;9.150;2024-02-15T07:40:20;3.58;;;1.35;;
773;SDS011;370;48.810;9.150;2024-02-15T07:42:47;5.83;;;0.90;;
773;SDS011;370;48.810;9.150;2024-02-15T07:45:14;1.57;;;0.90;;
773;SDS011;370;48.810;9.150;2024-02-15T07:47:43;1.33;;;1.10;;
773;SDS011;370;48.810;9.150;2024-02-15T07:50:11;2.40;;;1.07;;
773;SDS011;370;48.810;9.150;2024-02-15T07:52:45;1.90;;;1.20;;
773;SDS011;370;48.810;9.150;2024-02-15T07:55:12;1.40;;;1.00;;
773;SDS011;370;48.810;9.150;2024-02-15T07:57:38;1.08;;;1.00;;
773;SDS011;370;48.810;9.150;2024-02-15T08:00:06;2.10;;;1.07;;
773;SDS011;370;48.810;9.150;2024-02-15T08:02:35;3.80;;;1.10;;
773;SDS011;370;48.810;9.150;2024-02-15T08:05:05;1.33;;;1.00;;
773;SDS011;370;48.810;9.150;2024-02-15T08:07:36;1.13;;;0.73;;
773;SDS011;370;48.810;9.150;2024-02-15T08:10:04;4.77;;;1.00;;
773;SDS011;370;48.810;9.150;2024-02-15T08:12:37;0.93;;;0.87;;
773;SDS011;370;48.810;9.150;2024-02-15T08:15:05;3.27;;;1.40;;
773;SDS011;370;48.810;9.150;2024-02-15T08:17:37;0.60;;;0.60;;
773;SDS011;370;48.810;9.150;2024-02-15T08:20:05;3.00;;;0.77;;
773;SDS011;370;48.810;9.150;2024-02-15T08:22:33;1.47;;;1.17;;
773;SDS011;370;48.810;9.150;2024-02-15T08:25:04;1.37;;;1.10;;
773;SDS011;370;48.810;9.150;2024-02-15T08:27:35;6.07;;;1.30;;
773;SDS011;370;48.810;9.150;2024-02-15T08:30:06;1.33;;;0.70;;
773;SDS011;370;48.810;9.150;2024-02-15T08:32:34;1.27;;;0.97;;
773;SDS011;370;48.810;9.150;2024-02-15T08:35:01;2.73;;;0.93;;
773;SDS011;370;48.810;9.150;2024-02-15T08:37:29;0.80;;;0.73;;
773;SDS011;370;48.810;9.150;2024-02-15T08:39:57;1.07;;;1.00;;
773;SDS011;370;48.810;9.150;2024-02-15T08:42:26;2.30;;;1.33;;
773;SDS011;370;48.810;9.150;2024-02-15T08:44:53;2.20;;;1.20;;
773;SDS011;370;48.810;9.150;2024-02-15T08:47:21;5.27;;;1.13;;
773;SDS011;370;48.810;9.150;2024-02-15T08:49:48;4.43;;;1.47;;
773;SDS011;370;48.810;9.150;2024-02-15T08:52:15;0.73;;;0.70;;
773;SDS011;370;48.810;9.150;2024-02-15T08:54:43;1.23;;;0.90;;
773;SDS011;370;48.810;9.150;2024-02-15T08:57:10;1.97;;;0.90;;
773;SDS011;370;48.810;9.150;2024-02-15T08:59:40;1.73;;;1.10;;
773;SDS011;370;48.810;9.150;2024-02-15T09:02:07;1.20;;;1.00;;
773;SDS011;370;48.810;9.150;2024-02-15T09:04:34;1.37;;;1.30;;
773;SDS011;370;48.810;9.150;2024-02-15T09:07:01;3.07;;;1.77;;
773;SDS011;370;48.810;9.150;2024-02-15T09:09:29;6.00;;;1.43;;
773;SDS011;370;48.810;9.150;2024-02-15T09:11:56;5.30;;;2.07;;
773;SDS011;370;48.810;9.150;2024-02-15T09:14:24;4.10;;;1.70;;
773;SDS011;370;48.810;9.150;2024-02-15T09:20:17;3.30;;;1.80;;
773;SDS011;370;48.810;9.150;2024-02-15T09:27:11;5.30;;;2.20;;
773;SDS011;370;48.810;9.150;2024-02-15T09:30:25;2.70;;;1.70;;
773;SDS011;370;48.810;9.150;2024-02-15T09:33:10;5.60;;;2.30;;
773;SDS011;370;48.810;9.150;2024-02-15T09:35:48;8.57;;;1.80;;
773;SDS011;370;48.810;9.150;2024-02-15T09:38:18;2.03;;;1.63;;
773;SDS011;370;48.810;9.150;2024-02-15T09:41:05;6.00;;;2.40;;
773;SDS011;370;48.810;9.150;2024-02-15T09:43:32;4.40;;;2.07;;
773;SDS011;370;48.810;9.150;2024-02-15T09:46:00;3.07;;;2.17;;
773;SDS011;370;48.810;9.150;2024-02-15T09:48:32;3.50;;;1.97;;
773;SDS011;370;48.810;9.150;2024-02-15T09:51:43;4.37;;;2.20;;
773;SDS011;370;48.810;9.150;2024-02-15T09:54:19;4.20;;;2.37;;
773;SDS011;370;48.810;9.150;2024-02-15T09:57:15;3.30;;;1.70;;
773;SDS011;370;48.810;9.150;2024-02-15T09:59:43;4.33;;;2.17;;
773;SDS011;370;48.810;9.150;2024-02-15T10:02:10;2.20;;;1.80;;
773;SDS011;370;48.810;9.150;2024-02-15T10:04:40;2.33;;;1.50;;
773;SDS011;370;48.810;9.150;2024-02-15T10:07:10;5.30;;;2.10;;
773;SDS011;370;48.810;9.150;2024-02-15T10:09:43;2.60;;;1.90;;
773;SDS011;370;48.810;9.150;2024-02-15T10:12:10;5.10;;;2.70;;
773;SDS011;370;48.810;9.150;2024-02-15T10:14:37;2.00;;;1.80;;
773;SDS011;370;48.810;9.150;2024-02-15T10:17:08;3.00;;;2.30;;
773;SDS011;370;48.810;9.150;2024-02-15T10:19:36;2.80;;;2.07;;
773;SDS011;370;48.810;9.150;2024-02-15T10:22:06;2.83;;;2.30;;
773;SDS011;370;48.810;9.150;2024-02-15T10:24:34;4.30;;;2.17;;
773;SDS011;370;48.810;9.150;2024-02-15T10:27:02;4.27;;;2.20;;
773;SDS011;370;48.810;9.150;2024-02-15T10:29:31;2.73;;;2.20;;
773;SDS011;370;48.810;9.150;2024-02-15T10:31:59;3.77;;;2.27;;
773;SDS011;370;48.810;9.150;2024-02-15T10:34:27;2.20;;;2.03;;
773;SDS011;370;48.810;9.150;2024-02-15T10:36:55;3.40;;;2.10;;
773;SDS011;370;48.810;9.150;2024-02-15T10:39:37;3.27;;;1.90;;
773;SDS011;370;48.810;9.150;2024-02-15T10:42:06;2.27;;;1.80;;
773;SDS011;370;48.810;9.150;2024-02-15T10:44:35;2.70;;;1.67;;
773;SDS011;370;48.810;9.150;2024-02-15T10:47:05;3.40;;;1.90;;
773;SDS011;370;48.810;9.150;2024-02-15T10:49:34;3.00;;;1.80;;
773;SDS011;370;48.810;9.150;2024-02-15T10:52:03;4.90;;;2.23;;
773;SDS011;370;48.810;9.150;2024-02-15T10:54:40;2.30;;;1.70;;
773;SDS011;370;48.810;9.150;2024-02-15T10:57:11;3.00;;;2.10;;
773;SDS011;370;48.810;9.150;2024-02-15T10:59:43;9.27;;;1.90;;
773;SDS011;370;48.810;9.150;2024-02-15T11:02:25;2.37;;;2.00;;
773;SDS011;370;48.810;9.150;2024-02-15T11:04:55;3.87;;;1.90;;
773;SDS011;370;48.810;9.150;2024-02-15T11:07:29;3.27;;;1.87;;
773;SDS011;370;48.810;9.150;2024-02-15T11:10:01;4.23;;;2.30;;
773;SDS011;370;48.810;9.150;2024-02-15T11:12:31;1.87;;;1.67;;
773;SDS011;370;48.810;9.150;2024-02-15T11:14:58;3.40;;;1.63;;
773;SDS011;370;48.810;9.150;2024-02-15T11:17:46;2.63;;;1.60;;
773;SDS011;370;48.810;9.150;2024-02-15T11:23:23;2.43;;;1.70;;
773;SDS011;370;48.810;9.150;2024-02-15T11:25:56;3.80;;;1.33;;
773;SDS011;370;48.810;9.150;2024-02-15T11:28:38;4.20;;;1.50;;
773;SDS011;370;48.810;9.150;2024-02-15T11:31:09;8.27;;;1.70;;
773;SDS011;370;48.810;9.150;2024-02-15T11:33:38;1.47;;;1.27;;
773;SDS011;370;48.810;9.150;2024-02-15T11:36:10;1.90;;;1.30;;
773;SDS011;370;48.810;9.150;2024-02-15T11:38:38;2.83;;;1.50;;
773;SDS011;370;48.810;9.150;2024-02-15T11:41:09;3.33;;;1.23;;
773;SDS011;370;48.810;9.150;2024-02-15T11:43:49;3.77;;;1.50;;
773;SDS011;370;48.810;9.150;2024-02-15T11:46:22;1.80;;;1.40;;
773;SDS011;370;48.810;9.150;2024-02-15T11:48:56;4.43;;;1.87;;
773;SDS011;370;48.810;9.150;2024-02-15T11:51:30;2.10;;;1.47;;
773;SDS011;370;48.810;9.150;2024-02-15T11:54:10;1.57;;;1.30;;
773;SDS011;370;48.810;9.150;2024-02-15T11:56:53;3.00;;;1.20;;
773;SDS011;370;48.810;9.150;2024-02-15T11:59:29;2.33;;;1.63;;
773;SDS011;370;48.810;9.150;2024-02-15T12:01:57;1.43;;;1.33;;
773;SDS011;370;48.810;9.150;2024-02-15T12:04:42;2.60;;;1.60;;
773;SDS011;370;48.810;9.150;2024-02-15T12:07:27;3.40;;;1.77;;
773;SDS011;370;48.810;9.150;2024-02-15T12:10:15;4.73;;;1.60;;
773;SDS011;370;48.810;9.150;2024-02-15T12:13:01;4.23;;;1.40;;
773;SDS011;370;48.810;9.150;2024-02-15T12:15:56;2.10;;;1.50;;
773;SDS011;370;48.810;9.150;2024-02-15T12:18:41;4.23;;;1.20;;
773;SDS011;370;48.810;9.150;2024-02-15T12:21:09;1.10;;;1.00;;
773;SDS011;370;48.810;9.150;2024-02-15T12:23:40;2.43;;;1.60;;
773;SDS011;370;48.810;9.150;2024-02-15T12:26:07;2.60;;;1.40;;
773;SDS011;370;48.810;9.150;2024-02-15T12:28:35;1.67;;;1.23;;
773;SDS011;370;48.810;9.150;2024-02-15T12:31:03;1.30;;;1.20;;
773;SDS011;370;48.810;9.150;2024-02-15T12:33:32;1.83;;;1.30;;
773;SDS011;370;48.810;9.150;2024-02-15T12:36:05;3.80;;;1.33;;
773;SDS011;370;48.810;9.150;2024-02-15T12:38:33;2.67;;;1.20;;
773;SDS011;370;48.810;9.150;2024-02-15T12:41:02;1.60;;;1.10;;
773;SDS011;370;48.810;9.150;2024-02-15T12:43:30;1.87;;;1.03;;
773;SDS011;370;48.810;9.150;2024-02-15T12:45:59;3.13;;;1.10;;
773;SDS011;370;48.810;9.150;2024-02-15T12:48:26;5.40;;;1.13;;
773;SDS011;370;48.810;9.150;2024-02-15T12:50:52;1.00;;;0.90;;
773;SDS011;370;48.810;9.150;2024-02-15T12:53:20;1.40;;;1.03;;
773;SDS011;370;48.810;9.150;2024-02-15T12:55:52;2.47;;;1.30;;
773;SDS011;370;48.810;9.150;2024-02-15T12:58:21;1.77;;;1.07;;
773;SDS011;370;48.810;9.150;2024-02-15T13:00:49;0.90;;;0.80;;
773;SDS011;370;48.810;9.150;2024-02-15T13:03:22;1.00;;;1.00;;
773;SDS011;370;48.810;9.150;2024-02-15T13:05:48;1.53;;;1.00;;
773;SDS011;370;48.810;9.150;2024-02-15T13:08:16;2.93;;;0.80;;
773;SDS011;370;48.810;9.150;2024-02-15T13:10:44;3.20;;;0.80;;
773;SDS011;370;48.810;9.150;2024-02-15T13:13:12;2.73;;;0.90;;
773;SDS011;370;48.810;9.150;2024-02-15T13:15:41;3.23;;;0.97;;
773;SDS011;370;48.810;9.150;2024-02-15T13:18:07;1.23;;;0.83;;
773;SDS011;370;48.810;9.150;2024-02-15T13:20:40;1.00;;;0.80;;
773;SDS011;370;48.810;9.150;2024-02-15T13:23:07;7.67;;;1.07;;
773;SDS011;370;48.810;9.150;2024-02-15T13:25:40;0.83;;;0.83;;
773;SDS011;370;48.810;9.150;2024-02-15T13:28:08;2.57;;;0.90;;
773;SDS011;370;48.810;9.150;2024-02-15T13:30:38;2.03;;;1.20;;
773;SDS011;370;48.810;9.150;2024-02-15T13:33:06;1.73;;;1.17;;
773;SDS011;370;48.810;9.150;2024-02-15T13:35:33;1.60;;;1.30;;
773;SDS011;370;48.810;9.150;2024-02-15T13:38:02;5.17;;;1.50;;
773;SDS011;370;48.810;9.150;2024-02-15T13:40:29;3.30;;;1.30;;
773;SDS011;370;48.810;9.150;2024-02-15T13:42:57;2.93;;;1.20;;
773;SDS011;370;48.810;9.150;2024-02-15T13:45:26;4.77;;;1.63;;
773;SDS011;370;48.810;9.150;2024-02-15T13:47:57;0.90;;;0.90;;
773;SDS011;370;48.810;9.150;2024-02-15T13:50:26;1.77;;;1.20;;
773;SDS011;370;48.810;9.150;2024-02-15T13:52:54;10.50;;;1.47;;
773;SDS011;370;48.810;9.150;2024-02-15T13:55:24;5.47;;;1.30;;
773;SDS011;370;48.810;9.150;2024-02-15T13:57:52;1.53;;;1.00;;
773;SDS011;370;48.810;9.150;2024-02-15T14:00:21;2.67;;;1.37;;
773;SDS011;370;48.810;9.150;2024-02-15T14:02:48;2.83;;;1.23;;
773;SDS011;370;48.810;9.150;2024-02-15T14:05:15;2.07;;;1.10;;
773;SDS011;370;48.810;9.150;2024-02-15T14:07:45;3.47;;;1.07;;
773;SDS011;370;48.810;9.150;2024-02-15T14:10:15;1.13;;;0.90;;
773;SDS011;370;48.810;9.150;2024-02-15T14:12:45;1.50;;;0.77;;
773;SDS011;370;48.810;9.150;2024-02-15T14:15:13;1.30;;;0.90;;
773;SDS011;370;48.810;9.150;2024-02-15T14:17:42;5.23;;;1.40;;
773;SDS011;370;48.810;9.150;2024-02-15T14:20:10;0.73;;;0.70;;
773;SDS011;370;48.810;9.150;2024-02-15T14:22:39;0.90;;;0.73;;
773;SDS011;370;48.810;9.150;2024-02-15T14:25:06;3.30;;;1.50;;
773;SDS011;370;48.810;9.150;2024-02-15T14:27:37;2.67;;;1.10;;
773;SDS011;370;48.810;9.150;2024-02-15T14:30:07;1.80;;;1.10;;
773;SDS011;370;48.810;9.150;2024-02-15T14:32:52;2.30;;;1.00;;
773;SDS011;370;48.810;9.150;2024-02-15T14:35:32;4.23;;;1.00;;
773;SDS011;370;48.810;9.150;2024-02-15T14:38:01;5.20;;;1.50;;
773;SDS011;370;48.810;9.150;2024-02-15T14:40:31;1.03;;;1.00;;
773;SDS011;370;48.810;9.150;2024-02-15T14:42:59;1.57;;;1.20;;
773;SDS011;370;48.810;9.150;2024-02-15T14:45:28;1.10;;;1.00;;
773;SDS011;370;48.810;9.150;2024-02-15T14:47:56;1.47;;;1.00;;
773;SDS011;370;48.810;9.150;2024-02-15T14:50:23;1.43;;;1.30;;
773;SDS011;370;48.810;9.150;2024-02-15T14:52:50;1.57;;;1.00;;
773;SDS011;370;48.810;9.150;2024-02-15T14:55:18;6.53;;;1.03;;
773;SDS011;370;48.810;9.150;2024-02-15T14:57:45;2.37;;;1.30;;
773;SDS011;370;48.810;9.150;2024-02-15T15:00:12;13.83;;;1.30;;
773;SDS011;370;48.810;9.150;2024-02-15T15:02:43;1.30;;;1.23;;
773;SDS011;370;48.810;9.150;2024-02-15T15:05:11;1.77;;;1.03;;
773;SDS011;370;48.810;9.150;2024-02-15T15:07:56;1.80;;;1.10;;
773;SDS011;370;48.810;9.150;2024-02-15T15:10:40;2.60;;;1.30;;
773;SDS011;370;48.810;9.150;2024-02-15T15:13:25;1.90;;;1.20;;
773;SDS011;370;48.810;9.150;2024-02-15T15:15:52;3.27;;;1.23;;
773;SDS011;370;48.810;9.150;2024-02-15T15:18:20;4.10;;;1.10;;
773;SDS011;370;48.810;9.150;2024-02-15T15:20:47;7.53;;;1.53;;
773;SDS011;370;48.810;9.150;2024-02-15T15:23:14;1.60;;;1.03;;
773;SDS011;370;48.810;9.150;2024-02-15T15:25:41;1.90;;;0.93;;
773;SDS011;370;48.810;9.150;2024-02-15T15:28:08;1.37;;;1.07;;
773;SDS011;370;48.810;9.150;2024-02-15T15:30:36;7.00;;;1.60;;
773;SDS011;370;48.810;9.150;2024-02-15T15:33:03;2.27;;;1.03;;
773;SDS011;370;48.810;9.150;2024-02-15T15:35:31;3.80;;;1.40;;
773;SDS011;370;48.810;9.150;2024-02-15T15:37:59;6.73;;;1.57;;
773;SDS011;370;48.810;9.150;2024-02-15T15:40:26;3.93;;;1.10;;
773;SDS011;370;48.810;9.150;2024-02-15T15:42:54;6.03;;;1.17;;
773;SDS011;370;48.810;9.150;2024-02-15T15:45:20;1.43;;;1.13;;
773;SDS011;370;48.810;9.150;2024-02-15T15:47:48;3.60;;;1.40;;
773;SDS011;370;48.810;9.150;2024-02-15T15:50:15;15.60;;;1.67;;
773;SDS011;370;48.810;9.150;2024-02-15T15:52:43;4.93;;;1.43;;
773;SDS011;370;48.810;9.150;2024-02-15T15:55:10;5.37;;;1.80;;
773;SDS011;370;48.810;9.150;2024-02-15T15:57:37;1.80;;;1.17;;
773;SDS011;370;48.810;9.150;2024-02-15T16:00:05;2.30;;;1.00;;
773;SDS011;370;48.810;9.150;2024-02-15T16:02:38;0.97;;;0.93;;
773;SDS011;370;48.810;9.150;2024-02-15T16:05:06;3.57;;;1.30;;
773;SDS011;370;48.810;9.150;2024-02-15T16:07:34;4.30;;;1.90;;
773;SDS011;370;48.810;9.150;2024-02-15T16:10:04;4.50;;;1.20;;
773;SDS011;370;48.810;9.150;2024-02-15T16:12:34;2.00;;;1.00;;
773;SDS011;370;48.810;9.150;2024-02-15T16:15:01;4.30;;;1.20;;
773;SDS011;370;48.810;9.150;2024-02-15T16:17:30;12.20;;;1.50;;
773;SDS011;370;48.810;9.150;2024-02-15T16:19:58;1.63;;;0.97;;